sensor_id;sensor_type;location;lat;lon;timestamp;pressure;altitude;pressure_sealevel;temperature;humidity
69257;BME280;56376;53.356;-1.748;2024-03-06T00:01:42;99811.31;;;3.61;100.00
69257;BME280;56376;53.356;-1.748;2024-03-06T00:04:08;99805.28;;;3.56;100.00
69257;BME280;56376;53.356;-1.748;2024-03-06T00:06:34;99815.59;;;3.59;100.00
69257;BME280;56376;53.356;-1.748;2024-03-06T00:09:00;99813.91;;;3.58;100.00
69257;BME280;56376;53.356;-1.748;2024-03-06T00:11:27;99816.50;;;3.54;100.00
69257;BME280;56376;53.356;-1.748;2024-03-06T00:13:54;99816.50;;;3.51;100.00
69257;BME280;56376;53.356;-1.748;2024-03-06T00:16:20;99807.03;;;3.46;100.00
69257;BME280;56376;53.356;-1.748;2024-03-06T00:18:46;99819.94;;;3.45;100.00
69257;BME280;56376;53.356;-1.748;2024-03-06T00:21:11;99818.25;;;3.41;100.00
69257;BME280;56376;53.356;-1.748;2024-03-06T00:23:37;99810.50;;;3.36;100.00
69257;BME280;56376;53.356;-1.748;2024-03-06T00:26:03;99819.13;;;3.35;100.00
69257;BME280;56376;53.356;-1.748;2024-03-06T00:28:29;99820.00;;;3.30;100.00
69257;BME280;56376;53.356;-1.748;2024-03-06T00:30:55;99830.31;;;3.27;100.00
69257;BME280;56376;53.356;-1.748;2024-03-06T00:33:23;99826.03;;;3.22;100.00
69257;BME280;56376;53.356;-1.748;2024-03-06T00:35:49;99821.72;;;3.20;100.00
69257;BME280;56376;53.356;-1.748;2024-03-06T00:38:15;99815.72;;;3.16;100.00
69257;BME280;56376;53.356;-1.748;2024-03-06T00:40:40;99821.72;;;3.17;100.00
69257;BME280;56376;53.356;-1.748;2024-03-06T00:43:07;99823.47;;;3.13;100.00
69257;BME280;56376;53.356;-1.748;2024-03-06T00:45:33;99825.19;;;3.13;100.00
69257;BME280;56376;53.356;-1.748;2024-03-06T00:47:58;99825.19;;;3.07;100.00
69257;BME280;56376;53.356;-1.748;2024-03-06T00:50:24;99830.34;;;3.02;100.00
69257;BME280;56376;53.356;-1.748;2024-03-06T00:52:49;99834.69;;;3.00;100.00
69257;BME280;56376;53.356;-1.748;2024-03-06T00:55:15;99831.25;;;2.98;100.00
69257;BME280;56376;53.356;-1.748;2024-03-06T00:57:41;99832.09;;;2.95;100.00
69257;BME280;56376;53.356;-1.748;2024-03-06T01:00:07;99832.94;;;2.94;100.00
69257;BME280;56376;53.356;-1.748;2024-03-06T01:02:39;99834.66;;;2.97;100.00
69257;BME280;56376;53.356;-1.748;2024-03-06T01:05:06;99837.25;;;2.94;100.00
69257;BME280;56376;53.356;-1.748;2024-03-06T01:07:33;99832.09;;;2.91;100.00
69257;BME280;56376;53.356;-1.748;2024-03-06T01:09:59;99833.81;;;2.86;100.00
69257;BME280;56376;53.356;-1.748;2024-03-06T01:12:26;99838.97;;;2.78;100.00
69257;BME280;56376;53.356;-1.748;2024-03-06T01:14:53;99844.13;;;2.78;100.00
69257;BME280;56376;53.356;-1.748;2024-03-06T01:17:18;99843.28;;;2.76;100.00
69257;BME280;56376;53.356;-1.748;2024-03-06T01:19:44;99838.97;;;2.72;100.00
69257;BME280;56376;53.356;-1.748;2024-03-06T01:22:10;99840.69;;;2.73;100.00
69257;BME280;56376;53.356;-1.748;2024-03-06T01:24:36;99835.53;;;2.70;100.00
69257;BME280;56376;53.356;-1.748;2024-03-06T01:27:01;99832.09;;;2.65;100.00
69257;BME280;56376;53.356;-1.748;2024-03-06T01:29:31;99836.38;;;2.66;100.00
69257;BME280;56376;53.356;-1.748;2024-03-06T01:31:57;99841.56;;;2.63;100.00
69257;BME280;56376;53.356;-1.748;2024-03-06T01:34:24;99836.38;;;2.61;100.00
69257;BME280;56376;53.356;-1.748;2024-03-06T01:36:51;99820.88;;;2.52;100.00
69257;BME280;56376;53.356;-1.748;2024-03-06T01:39:16;99837.25;;;2.55;100.00
69257;BME280;56376;53.356;-1.748;2024-03-06T01:41:49;99842.41;;;2.55;100.00
69257;BME280;56376;53.356;-1.748;2024-03-06T01:44:17;99841.53;;;2.52;100.00
69257;BME280;56376;53.356;-1.748;2024-03-06T01:46:43;99841.53;;;2.53;100.00
69257;BME280;56376;53.356;-1.748;2024-03-06T01:49:11;99838.09;;;2.54;100.00
69257;BME280;56376;53.356;-1.748;2024-03-06T01:51:39;99837.25;;;2.52;100.00
69257;BME280;56376;53.356;-1.748;2024-03-06T01:54:04;99829.50;;;2.52;100.00
69257;BME280;56376;53.356;-1.748;2024-03-06T01:56:33;99833.78;;;2.52;100.00
69257;BME280;56376;53.356;-1.748;2024-03-06T01:58:59;99836.38;;;2.50;100.00
69257;BME280;56376;53.356;-1.748;2024-03-06T02:01:25;99838.06;;;2.47;100.00
69257;BME280;56376;53.356;-1.748;2024-03-06T02:03:51;99824.34;;;2.45;100.00
69257;BME280;56376;53.356;-1.748;2024-03-06T02:06:18;99827.75;;;2.44;100.00
69257;BME280;56376;53.356;-1.748;2024-03-06T02:08:45;99834.63;;;2.49;100.00
69257;BME280;56376;53.356;-1.748;2024-03-06T02:11:12;99838.94;;;2.49;100.00
69257;BME280;56376;53.356;-1.748;2024-03-06T02:13:39;99841.50;;;2.44;100.00
69257;BME280;56376;53.356;-1.748;2024-03-06T02:16:05;99840.66;;;2.44;100.00
69257;BME280;56376;53.356;-1.748;2024-03-06T02:18:31;99841.50;;;2.41;100.00
69257;BME280;56376;53.356;-1.748;2024-03-06T02:20:57;99837.22;;;2.35;100.00
69257;BME280;56376;53.356;-1.748;2024-03-06T02:23:24;99842.38;;;2.32;100.00
69257;BME280;56376;53.356;-1.748;2024-03-06T02:25:50;99832.03;;;2.28;100.00
69257;BME280;56376;53.356;-1.748;2024-03-06T02:28:16;99838.06;;;2.28;100.00
69257;BME280;56376;53.356;-1.748;2024-03-06T02:30:43;99838.03;;;2.27;100.00
69257;BME280;56376;53.356;-1.748;2024-03-06T02:33:09;99838.06;;;2.28;100.00
69257;BME280;56376;53.356;-1.748;2024-03-06T02:35:35;99842.38;;;2.29;100.00
69257;BME280;56376;53.356;-1.748;2024-03-06T02:38:05;99836.34;;;2.32;100.00
69257;BME280;56376;53.356;-1.748;2024-03-06T02:40:31;99837.22;;;2.32;100.00
69257;BME280;56376;53.356;-1.748;2024-03-06T02:42:57;99839.78;;;2.31;100.00
69257;BME280;56376;53.356;-1.748;2024-03-06T02:45:23;99839.78;;;2.31;100.00
69257;BME280;56376;53.356;-1.748;2024-03-06T02:47:48;99834.63;;;2.31;100.00
69257;BME280;56376;53.356;-1.748;2024-03-06T02:50:14;99838.91;;;2.30;100.00
69257;BME280;56376;53.356;-1.748;2024-03-06T02:52:39;99840.63;;;2.28;100.00
69257;BME280;56376;53.356;-1.748;2024-03-06T02:55:06;99831.16;;;2.26;100.00
69257;BME280;56376;53.356;-1.748;2024-03-06T02:57:31;99832.03;;;2.26;100.00
69257;BME280;56376;53.356;-1.748;2024-03-06T02:59:57;99832.03;;;2.23;100.00
69257;BME280;56376;53.356;-1.748;2024-03-06T03:02:23;99834.63;;;2.25;100.00
69257;BME280;56376;53.356;-1.748;2024-03-06T03:04:51;99830.31;;;2.25;100.00
69257;BME280;56376;53.356;-1.748;2024-03-06T03:07:19;99831.16;;;2.26;100.00
69257;BME280;56376;53.356;-1.748;2024-03-06T03:09:45;99836.31;;;2.26;100.00
69257;BME280;56376;53.356;-1.748;2024-03-06T03:12:11;99829.47;;;2.25;100.00
69257;BME280;56376;53.356;-1.748;2024-03-06T03:14:37;99833.75;;;2.26;100.00
69257;BME280;56376;53.356;-1.748;2024-03-06T03:17:02;99831.16;;;2.23;100.00
69257;BME280;56376;53.356;-1.748;2024-03-06T03:19:30;99830.28;;;2.19;100.00
69257;BME280;56376;53.356;-1.748;2024-03-06T03:21:56;99829.44;;;2.19;100.00
69257;BME280;56376;53.356;-1.748;2024-03-06T03:24:23;99824.28;;;2.20;100.00
69257;BME280;56376;53.356;-1.748;2024-03-06T03:26:51;99825.16;;;2.21;100.00
69257;BME280;56376;53.356;-1.748;2024-03-06T03:29:17;99823.41;;;2.21;100.00
69257;BME280;56376;53.356;-1.748;2024-03-06T03:31:42;99826.88;;;2.23;100.00
69257;BME280;56376;53.356;-1.748;2024-03-06T03:34:08;99825.16;;;2.25;100.00
69257;BME280;56376;53.356;-1.748;2024-03-06T03:36:34;99817.44;;;2.25;100.00
69257;BME280;56376;53.356;-1.748;2024-03-06T03:38:59;99828.56;;;2.24;100.00
69257;BME280;56376;53.356;-1.748;2024-03-06T03:41:25;99826.03;;;2.26;100.00
69257;BME280;56376;53.356;-1.748;2024-03-06T03:43:51;99827.75;;;2.25;100.00
69257;BME280;56376;53.356;-1.748;2024-03-06T03:46:16;99817.44;;;2.28;100.00
69257;BME280;56376;53.356;-1.748;2024-03-06T03:48:41;99823.47;;;2.32;100.00
69257;BME280;56376;53.356;-1.748;2024-03-06T03:51:08;99824.31;;;2.32;100.00
69257;BME280;56376;53.356;-1.748;2024-03-06T03:53:35;99824.31;;;2.35;100.00
69257;BME280;56376;53.356;-1.748;2024-03-06T03:56:01;99830.34;;;2.37;100.00
69257;BME280;56376;53.356;-1.748;2024-03-06T03:58:26;99817.44;;;2.39;100.00
69257;BME280;56376;53.356;-1.748;2024-03-06T04:00:52;99820.91;;;2.43;100.00
69257;BME280;56376;53.356;-1.748;2024-03-06T04:03:21;99826.91;;;2.42;100.00
69257;BME280;56376;53.356;-1.748;2024-03-06T04:05:48;99823.47;;;2.41;100.00
69257;BME280;56376;53.356;-1.748;2024-03-06T04:08:14;99820.91;;;2.40;100.00
69257;BME280;56376;53.356;-1.748;2024-03-06T04:10:39;99829.47;;;2.38;100.00
69257;BME280;56376;53.356;-1.748;2024-03-06T04:13:05;99825.19;;;2.36;100.00
69257;BME280;56376;53.356;-1.748;2024-03-06T04:15:31;99832.91;;;2.36;100.00
69257;BME280;56376;53.356;-1.748;2024-03-06T04:17:57;99825.16;;;2.31;100.00
69257;BME280;56376;53.356;-1.748;2024-03-06T04:20:23;99826.03;;;2.32;100.00
69257;BME280;56376;53.356;-1.748;2024-03-06T04:22:48;99827.75;;;2.31;100.00
69257;BME280;56376;53.356;-1.748;2024-03-06T04:25:16;99830.34;;;2.30;100.00
69257;BME280;56376;53.356;-1.748;2024-03-06T04:27:42;99832.91;;;2.28;100.00
69257;BME280;56376;53.356;-1.748;2024-03-06T04:30:07;99832.91;;;2.25;100.00
69257;BME280;56376;53.356;-1.748;2024-03-06T04:32:33;99834.63;;;2.25;100.00
69257;BME280;56376;53.356;-1.748;2024-03-06T04:34:59;99832.88;;;2.21;100.00
69257;BME280;56376;53.356;-1.748;2024-03-06T04:37:24;99840.63;;;2.21;100.00
69257;BME280;56376;53.356;-1.748;2024-03-06T04:39:51;99846.63;;;2.20;100.00
69257;BME280;56376;53.356;-1.748;2024-03-06T04:42:17;99843.19;;;2.17;100.00
69257;BME280;56376;53.356;-1.748;2024-03-06T04:44:45;99847.47;;;2.15;100.00
69257;BME280;56376;53.356;-1.748;2024-03-06T04:47:10;99862.09;;;2.23;100.00
69257;BME280;56376;53.356;-1.748;2024-03-06T04:49:36;99854.34;;;2.21;100.00
69257;BME280;56376;53.356;-1.748;2024-03-06T04:52:01;99862.09;;;2.21;100.00
69257;BME280;56376;53.356;-1.748;2024-03-06T04:54:28;99862.94;;;2.19;100.00
69257;BME280;56376;53.356;-1.748;2024-03-06T04:56:55;99868.09;;;2.20;100.00
69257;BME280;56376;53.356;-1.748;2024-03-06T04:59:20;99874.13;;;2.17;100.00
69257;BME280;56376;53.356;-1.748;2024-03-06T05:01:46;99867.22;;;2.16;100.00
69257;BME280;56376;53.356;-1.748;2024-03-06T05:04:11;99868.09;;;2.17;100.00
69257;BME280;56376;53.356;-1.748;2024-03-06T05:06:37;99887.00;;;2.17;100.00
69257;BME280;56376;53.356;-1.748;2024-03-06T05:09:03;99889.56;;;2.17;100.00
69257;BME280;56376;53.356;-1.748;2024-03-06T05:11:29;99878.38;;;2.14;100.00
69257;BME280;56376;53.356;-1.748;2024-03-06T05:14:00;99878.38;;;2.11;100.00
69257;BME280;56376;53.356;-1.748;2024-03-06T05:16:25;99880.09;;;2.09;100.00
69257;BME280;56376;53.356;-1.748;2024-03-06T05:18:52;99882.66;;;2.09;100.00
69257;BME280;56376;53.356;-1.748;2024-03-06T05:21:17;99894.69;;;2.08;100.00
69257;BME280;56376;53.356;-1.748;2024-03-06T05:23:45;99886.97;;;2.07;100.00
69257;BME280;56376;53.356;-1.748;2024-03-06T05:26:11;99891.25;;;2.02;100.00
69257;BME280;56376;53.356;-1.748;2024-03-06T05:28:36;99891.22;;;2.03;100.00
69257;BME280;56376;53.356;-1.748;2024-03-06T05:31:16;99904.13;;;2.06;100.00
69257;BME280;56376;53.356;-1.748;2024-03-06T05:33:43;99905.00;;;2.07;100.00
69257;BME280;56376;53.356;-1.748;2024-03-06T05:36:09;99904.16;;;2.09;100.00
69257;BME280;56376;53.356;-1.748;2024-03-06T05:38:34;99908.44;;;2.13;100.00
69257;BME280;56376;53.356;-1.748;2024-03-06T05:41:00;99899.00;;;2.12;100.00
69257;BME280;56376;53.356;-1.748;2024-03-06T05:43:26;99903.31;;;2.16;100.00
69257;BME280;56376;53.356;-1.748;2024-03-06T05:45:53;99900.72;;;2.16;100.00
69257;BME280;56376;53.356;-1.748;2024-03-06T05:48:18;99896.47;;;2.17;100.00
69257;BME280;56376;53.356;-1.748;2024-03-06T05:50:44;99893.00;;;2.18;100.00
69257;BME280;56376;53.356;-1.748;2024-03-06T05:53:10;99900.75;;;2.21;100.00
69257;BME280;56376;53.356;-1.748;2024-03-06T05:55:37;99899.88;;;2.21;100.00
69257;BME280;56376;53.356;-1.748;2024-03-06T05:58:02;99906.75;;;2.22;100.00
69257;BME280;56376;53.356;-1.748;2024-03-06T06:00:27;99908.47;;;2.21;100.00
69257;BME280;56376;53.356;-1.748;2024-03-06T06:02:53;99913.66;;;2.23;100.00
69257;BME280;56376;53.356;-1.748;2024-03-06T06:05:18;99914.50;;;2.23;100.00
69257;BME280;56376;53.356;-1.748;2024-03-06T06:07:45;99922.25;;;2.25;100.00
69257;BME280;56376;53.356;-1.748;2024-03-06T06:10:11;99905.03;;;2.21;100.00
69257;BME280;56376;53.356;-1.748;2024-03-06T06:12:36;99920.50;;;2.21;100.00
69257;BME280;56376;53.356;-1.748;2024-03-06T06:15:03;99918.81;;;2.20;100.00
69257;BME280;56376;53.356;-1.748;2024-03-06T06:17:29;99929.09;;;2.21;100.00
69257;BME280;56376;53.356;-1.748;2024-03-06T06:19:54;99927.38;;;2.22;100.00
69257;BME280;56376;53.356;-1.748;2024-03-06T06:22:20;99922.25;;;2.23;100.00
69257;BME280;56376;53.356;-1.748;2024-03-06T06:24:45;99928.25;;;2.27;100.00
69257;BME280;56376;53.356;-1.748;2024-03-06T06:27:11;99933.44;;;2.28;100.00
69257;BME280;56376;53.356;-1.748;2024-03-06T06:29:36;99936.03;;;2.33;100.00
69257;BME280;56376;53.356;-1.748;2024-03-06T06:32:02;99934.31;;;2.32;100.00
69257;BME280;56376;53.356;-1.748;2024-03-06T06:34:28;99932.59;;;2.29;100.00
69257;BME280;56376;53.356;-1.748;2024-03-06T06:36:53;99933.44;;;2.28;100.00
69257;BME280;56376;53.356;-1.748;2024-03-06T06:39:19;99937.75;;;2.32;100.00
69257;BME280;56376;53.356;-1.748;2024-03-06T06:41:44;99930.88;;;2.30;100.00
69257;BME280;56376;53.356;-1.748;2024-03-06T06:44:10;99937.72;;;2.34;100.00
69257;BME280;56376;53.356;-1.748;2024-03-06T06:46:36;99935.16;;;2.34;100.00
69257;BME280;56376;53.356;-1.748;2024-03-06T06:49:01;99938.59;;;2.36;100.00
69257;BME280;56376;53.356;-1.748;2024-03-06T06:51:27;99942.88;;;2.34;100.00
69257;BME280;56376;53.356;-1.748;2024-03-06T06:53:54;99941.19;;;2.34;100.00
69257;BME280;56376;53.356;-1.748;2024-03-06T06:56:20;99948.09;;;2.37;100.00
69257;BME280;56376;53.356;-1.748;2024-03-06T06:58:49;99949.78;;;2.38;100.00
69257;BME280;56376;53.356;-1.748;2024-03-06T07:01:15;99942.03;;;2.36;100.00
69257;BME280;56376;53.356;-1.748;2024-03-06T07:03:43;99948.94;;;2.41;100.00
69257;BME280;56376;53.356;-1.748;2024-03-06T07:06:08;99942.91;;;2.42;100.00
69257;BME280;56376;53.356;-1.748;2024-03-06T07:08:34;99947.25;;;2.43;100.00
69257;BME280;56376;53.356;-1.748;2024-03-06T07:10:59;99944.63;;;2.41;100.00
69257;BME280;56376;53.356;-1.748;2024-03-06T07:13:25;99950.66;;;2.43;100.00
69257;BME280;56376;53.356;-1.748;2024-03-06T07:15:51;99948.94;;;2.44;100.00
69257;BME280;56376;53.356;-1.748;2024-03-06T07:18:16;99957.56;;;2.47;100.00
69257;BME280;56376;53.356;-1.748;2024-03-06T07:20:42;99967.88;;;2.49;100.00
69257;BME280;56376;53.356;-1.748;2024-03-06T07:23:07;99965.31;;;2.47;100.00
69257;BME280;56376;53.356;-1.748;2024-03-06T07:25:33;99967.00;;;2.47;100.00
69257;BME280;56376;53.356;-1.748;2024-03-06T07:27:58;99977.34;;;2.51;100.00
69257;BME280;56376;53.356;-1.748;2024-03-06T07:30:23;99966.19;;;2.52;100.00
69257;BME280;56376;53.356;-1.748;2024-03-06T07:32:49;99973.03;;;2.52;100.00
69257;BME280;56376;53.356;-1.748;2024-03-06T07:35:14;99971.31;;;2.51;100.00
69257;BME280;56376;53.356;-1.748;2024-03-06T07:37:40;99967.88;;;2.52;100.00
69257;BME280;56376;53.356;-1.748;2024-03-06T07:40:07;99967.03;;;2.50;100.00
69257;BME280;56376;53.356;-1.748;2024-03-06T07:42:34;99964.47;;;2.53;100.00
69257;BME280;56376;53.356;-1.748;2024-03-06T07:45:04;99979.94;;;2.56;100.00
69257;BME280;56376;53.356;-1.748;2024-03-06T07:47:29;99973.06;;;2.59;100.00
69257;BME280;56376;53.356;-1.748;2024-03-06T07:49:55;99975.63;;;2.59;100.00
69257;BME280;56376;53.356;-1.748;2024-03-06T07:52:20;99977.38;;;2.64;100.00
69257;BME280;56376;53.356;-1.748;2024-03-06T07:54:46;99976.53;;;2.68;100.00
69257;BME280;56376;53.356;-1.748;2024-03-06T07:57:12;99978.25;;;2.72;100.00
69257;BME280;56376;53.356;-1.748;2024-03-06T07:59:37;99978.25;;;2.72;100.00
69257;BME280;56376;53.356;-1.748;2024-03-06T08:02:03;99974.84;;;2.73;100.00
69257;BME280;56376;53.356;-1.748;2024-03-06T08:04:31;99980.84;;;2.76;100.00
69257;BME280;56376;53.356;-1.748;2024-03-06T08:06:56;99989.47;;;2.78;100.00
69257;BME280;56376;53.356;-1.748;2024-03-06T08:09:23;99982.59;;;2.80;100.00
69257;BME280;56376;53.356;-1.748;2024-03-06T08:11:49;99975.72;;;2.81;100.00
69257;BME280;56376;53.356;-1.748;2024-03-06T08:14:14;99967.97;;;2.76;100.00
69257;BME280;56376;53.356;-1.748;2024-03-06T08:16:42;99973.13;;;2.79;100.00
69257;BME280;56376;53.356;-1.748;2024-03-06T08:19:08;99981.72;;;2.85;100.00
69257;BME280;56376;53.356;-1.748;2024-03-06T08:21:33;99989.50;;;2.88;100.00
69257;BME280;56376;53.356;-1.748;2024-03-06T08:24:00;99987.75;;;2.90;100.00
69257;BME280;56376;53.356;-1.748;2024-03-06T08:26:25;99998.97;;;2.93;100.00
69257;BME280;56376;53.356;-1.748;2024-03-06T08:28:51;99992.94;;;2.94;100.00
69257;BME280;56376;53.356;-1.748;2024-03-06T08:31:17;99986.94;;;2.98;100.00
69257;BME280;56376;53.356;-1.748;2024-03-06T08:33:44;99989.53;;;3.00;100.00
69257;BME280;56376;53.356;-1.748;2024-03-06T08:36:10;99988.66;;;2.98;100.00
69257;BME280;56376;53.356;-1.748;2024-03-06T08:38:35;99969.75;;;2.97;100.00
69257;BME280;56376;53.356;-1.748;2024-03-06T08:41:00;99988.66;;;3.06;100.00
69257;BME280;56376;53.356;-1.748;2024-03-06T08:43:28;99995.56;;;3.08;100.00
69257;BME280;56376;53.356;-1.748;2024-03-06T08:45:54;99993.00;;;3.13;100.00
69257;BME280;56376;53.356;-1.748;2024-03-06T08:48:20;100000.72;;;3.17;100.00
69257;BME280;56376;53.356;-1.748;2024-03-06T08:50:46;99997.28;;;3.18;100.00
69257;BME280;56376;53.356;-1.748;2024-03-06T08:53:12;100002.47;;;3.23;100.00
69257;BME280;56376;53.356;-1.748;2024-03-06T08:55:39;100005.91;;;3.28;100.00
69257;BME280;56376;53.356;-1.748;2024-03-06T08:58:04;99994.72;;;3.29;100.00
69257;BME280;56376;53.356;-1.748;2024-03-06T09:00:30;99993.84;;;3.29;100.00
69257;BME280;56376;53.356;-1.748;2024-03-06T09:02:58;99999.03;;;3.33;100.00
69257;BME280;56376;53.356;-1.748;2024-03-06T09:05:24;99997.28;;;3.34;100.00
69257;BME280;56376;53.356;-1.748;2024-03-06T09:07:49;99999.91;;;3.35;100.00
69257;BME280;56376;53.356;-1.748;2024-03-06T09:10:15;100002.47;;;3.41;100.00
69257;BME280;56376;53.356;-1.748;2024-03-06T09:12:41;99998.16;;;3.43;100.00
69257;BME280;56376;53.356;-1.748;2024-03-06T09:15:07;100007.63;;;3.49;100.00
69257;BME280;56376;53.356;-1.748;2024-03-06T09:17:32;100002.47;;;3.52;100.00
69257;BME280;56376;53.356;-1.748;2024-03-06T09:19:58;100003.31;;;3.57;100.00
69257;BME280;56376;53.356;-1.748;2024-03-06T09:22:23;99999.88;;;3.61;100.00
69257;BME280;56376;53.356;-1.748;2024-03-06T09:24:49;100005.91;;;3.65;100.00
69257;BME280;56376;53.356;-1.748;2024-03-06T09:27:15;100012.78;;;3.69;100.00
69257;BME280;56376;53.356;-1.748;2024-03-06T09:29:42;100007.63;;;3.71;100.00
69257;BME280;56376;53.356;-1.748;2024-03-06T09:32:08;100017.94;;;3.80;100.00
69257;BME280;56376;53.356;-1.748;2024-03-06T09:34:34;100018.78;;;3.88;100.00
69257;BME280;56376;53.356;-1.748;2024-03-06T09:37:00;100017.94;;;4.01;100.00
69257;BME280;56376;53.356;-1.748;2024-03-06T09:39:26;100025.63;;;4.18;100.00
69257;BME280;56376;53.356;-1.748;2024-03-06T09:41:52;100017.84;;;4.37;100.00
69257;BME280;56376;53.356;-1.748;2024-03-06T09:44:19;100022.97;;;4.52;100.00
69257;BME280;56376;53.356;-1.748;2024-03-06T09:46:48;100003.94;;;4.64;100.00
69257;BME280;56376;53.356;-1.748;2024-03-06T09:49:18;100009.00;;;4.81;100.00
69257;BME280;56376;53.356;-1.748;2024-03-06T09:51:47;100006.34;;;4.97;100.00
69257;BME280;56376;53.356;-1.748;2024-03-06T09:54:17;100006.25;;;5.13;100.00
69257;BME280;56376;53.356;-1.748;2024-03-06T09:56:43;100002.69;;;5.29;100.00
69257;BME280;56376;53.356;-1.748;2024-03-06T09:59:10;100005.13;;;5.46;100.00
69257;BME280;56376;53.356;-1.748;2024-03-06T10:01:49;100005.81;;;5.68;100.00
69257;BME280;56376;53.356;-1.748;2024-03-06T10:04:23;100007.38;;;5.86;100.00
69257;BME280;56376;53.356;-1.748;2024-03-06T10:06:52;100013.34;;;5.99;100.00
69257;BME280;56376;53.356;-1.748;2024-03-06T10:09:20;100010.59;;;6.16;100.00
69257;BME280;56376;53.356;-1.748;2024-03-06T10:11:46;100021.69;;;6.30;100.00
69257;BME280;56376;53.356;-1.748;2024-03-06T10:14:13;100021.50;;;6.44;100.00
69257;BME280;56376;53.356;-1.748;2024-03-06T10:16:59;100019.66;;;6.55;100.00
69257;BME280;56376;53.356;-1.748;2024-03-06T10:19:26;100023.03;;;6.63;100.00
69257;BME280;56376;53.356;-1.748;2024-03-06T10:21:58;100021.19;;;6.71;100.00
69257;BME280;56376;53.356;-1.748;2024-03-06T10:27:29;100009.72;;;6.88;100.00
69257;BME280;56376;53.356;-1.748;2024-03-06T10:30:02;100023.47;;;6.94;100.00
69257;BME280;56376;53.356;-1.748;2024-03-06T10:32:30;100016.56;;;6.93;100.00
69257;BME280;56376;53.356;-1.748;2024-03-06T10:34:56;100017.44;;;6.92;100.00
69257;BME280;56376;53.356;-1.748;2024-03-06T10:37:22;100018.22;;;6.99;100.00
69257;BME280;56376;53.356;-1.748;2024-03-06T10:39:52;100024.22;;;7.04;100.00
69257;BME280;56376;53.356;-1.748;2024-03-06T10:42:20;100013.75;;;7.09;100.00
69257;BME280;56376;53.356;-1.748;2024-03-06T10:44:55;100017.03;;;7.22;100.00
69257;BME280;56376;53.356;-1.748;2024-03-06T10:47:25;100022.06;;;7.32;100.00
69257;BME280;56376;53.356;-1.748;2024-03-06T10:49:52;100019.16;;;7.51;100.00
69257;BME280;56376;53.356;-1.748;2024-03-06T10:52:19;100023.31;;;7.63;100.00
69257;BME280;56376;53.356;-1.748;2024-03-06T10:54:46;100016.94;;;7.82;100.00
69257;BME280;56376;53.356;-1.748;2024-03-06T10:57:13;100022.72;;;7.98;100.00
69257;BME280;56376;53.356;-1.748;2024-03-06T10:59:39;100020.66;;;8.15;100.00
69257;BME280;56376;53.356;-1.748;2024-03-06T11:02:08;100024.59;;;8.36;100.00
69257;BME280;56376;53.356;-1.748;2024-03-06T11:04:37;100013.97;;;8.50;100.00
69257;BME280;56376;53.356;-1.748;2024-03-06T11:07:05;100021.47;;;8.65;100.00
69257;BME280;56376;53.356;-1.748;2024-03-06T11:09:35;100015.94;;;8.81;100.00
69257;BME280;56376;53.356;-1.748;2024-03-06T11:12:02;100018.25;;;8.95;100.00
69257;BME280;56376;53.356;-1.748;2024-03-06T11:14:30;100023.28;;;9.02;100.00
69257;BME280;56376;53.356;-1.748;2024-03-06T11:16:59;100025.69;;;9.12;100.00
69257;BME280;56376;53.356;-1.748;2024-03-06T11:19:28;100017.78;;;9.15;100.00
69257;BME280;56376;53.356;-1.748;2024-03-06T11:21:54;100015.16;;;9.16;100.00
69257;BME280;56376;53.356;-1.748;2024-03-06T11:24:21;100020.13;;;9.27;100.00
69257;BME280;56376;53.356;-1.748;2024-03-06T11:29:23;100029.97;;;9.51;100.00
69257;BME280;56376;53.356;-1.748;2024-03-06T11:34:29;100017.50;;;9.64;100.00
69257;BME280;56376;53.356;-1.748;2024-03-06T11:36:58;100019.78;;;9.77;100.00
69257;BME280;56376;53.356;-1.748;2024-03-06T11:39:24;100014.28;;;9.87;100.00
69257;BME280;56376;53.356;-1.748;2024-03-06T11:41:50;100013.13;;;9.99;100.00
69257;BME280;56376;53.356;-1.748;2024-03-06T11:44:17;100012.75;;;10.13;100.00
69257;BME280;56376;53.356;-1.748;2024-03-06T11:46:47;100018.47;;;10.27;100.00
69257;BME280;56376;53.356;-1.748;2024-03-06T11:51:57;100023.78;;;10.57;100.00
69257;BME280;56376;53.356;-1.748;2024-03-06T11:54:25;100019.91;;;10.70;100.00
69257;BME280;56376;53.356;-1.748;2024-03-06T11:56:59;100028.31;;;10.81;100.00
69257;BME280;56376;53.356;-1.748;2024-03-06T11:59:28;100026.22;;;10.93;100.00
69257;BME280;56376;53.356;-1.748;2024-03-06T12:01:56;100018.13;;;11.00;100.00
69257;BME280;56376;53.356;-1.748;2024-03-06T12:04:24;100020.53;;;11.08;100.00
69257;BME280;56376;53.356;-1.748;2024-03-06T12:06:50;100015.03;;;11.17;100.00
69257;BME280;56376;53.356;-1.748;2024-03-06T12:09:16;100017.25;;;11.30;100.00
69257;BME280;56376;53.356;-1.748;2024-03-06T12:11:42;100016.31;;;11.32;100.00
69257;BME280;56376;53.356;-1.748;2024-03-06T12:14:18;100022.09;;;11.42;100.00
69257;BME280;56376;53.356;-1.748;2024-03-06T12:16:54;100020.28;;;11.44;100.00
69257;BME280;56376;53.356;-1.748;2024-03-06T12:19:20;100015.00;;;11.45;100.00
69257;BME280;56376;53.356;-1.748;2024-03-06T12:21:47;100014.81;;;11.52;100.00
69257;BME280;56376;53.356;-1.748;2024-03-06T12:24:16;100017.25;;;11.56;100.00
69257;BME280;56376;53.356;-1.748;2024-03-06T12:26:44;100012.00;;;11.58;100.00
69257;BME280;56376;53.356;-1.748;2024-03-06T12:29:11;100018.84;;;11.62;100.00
69257;BME280;56376;53.356;-1.748;2024-03-06T12:31:41;100010.88;;;11.65;100.00
69257;BME280;56376;53.356;-1.748;2024-03-06T12:34:13;100018.53;;;11.71;100.00
69257;BME280;56376;53.356;-1.748;2024-03-06T12:36:40;100008.75;;;11.76;100.00
69257;BME280;56376;53.356;-1.748;2024-03-06T12:39:06;100003.34;;;11.82;100.00
69257;BME280;56376;53.356;-1.748;2024-03-06T12:41:40;100001.75;;;11.77;100.00
69257;BME280;56376;53.356;-1.748;2024-03-06T12:44:07;100004.06;;;11.86;100.00
69257;BME280;56376;53.356;-1.748;2024-03-06T12:46:32;100011.00;;;11.88;100.00
69257;BME280;56376;53.356;-1.748;2024-03-06T12:48:58;100006.59;;;11.89;100.00
69257;BME280;56376;53.356;-1.748;2024-03-06T12:51:24;100006.91;;;11.80;100.00
69257;BME280;56376;53.356;-1.748;2024-03-06T12:53:50;100002.19;;;11.64;100.00